Time;durP1;ratioP1;P1;durP2;ratioP2;P2;SDS_P1;SDS_P2;PMS_P1;PMS_P2;Temp;Humidity;BMP_temperature;BMP_pressure;BME280_temperature;BME280_humidity;BME280_pressure;Samples;Min_cycle;Max_cycle;Signal;HPM_P1;HPM_P2
2022/12/04 15:03:12;;;;;;;33.97;17.27;;;2.40;86.60;;;;;;5110693;27;20158;-58
2022/12/04 15:05:37;;;;;;;;;;;2.60;86.50;;;;;;5109263;28;20035;-61
2022/12/04 15:08:04;;;;;;;40.83;18.73;;;2.60;86.10;;;;;;5110072;28;20321;-60
2022/12/04 15:13:28;;;;;;;37.00;18.80;;;2.80;85.90;;;;;;5110456;28;20097;-60
2022/12/04 15:15:54;;;;;;;40.38;21.05;;;2.60;86.00;;;;;;5110247;28;20480;-57
2022/12/04 15:18:19;;;;;;;48.08;21.50;;;2.60;86.10;;;;;;5110213;28;20031;-59
2022/12/04 15:20:48;;;;;;;40.45;20.98;;;2.60;86.00;;;;;;5110028;28;20103;-60
2022/12/04 15:23:21;;;;;;;40.95;19.02;;;2.60;86.10;;;;;;5110310;28;20032;-61
2022/12/04 15:25:52;;;;;;;47.45;20.80;;;2.50;86.00;;;;;;5110025;28;20015;-59
2022/12/04 15:28:27;;;;;;;42.03;21.70;;;2.60;86.30;;;;;;5110695;28;20028;-61
2022/12/04 15:30:54;;;;;;;41.78;19.50;;;2.60;86.20;;;;;;5109898;28;20015;-59
2022/12/04 15:33:28;;;;;;;41.83;22.70;;;2.60;86.40;;;;;;5109411;28;20050;-60
2022/12/04 15:36:05;;;;;;;41.05;19.58;;;2.60;86.20;;;;;;5109295;28;20020;-60
2022/12/04 15:38:31;;;;;;;32.92;18.35;;;2.70;86.10;;;;;;5109302;28;20468;-59
2022/12/04 15:40:59;;;;;;;44.80;19.63;;;2.60;86.20;;;;;;5109157;28;20028;-59
2022/12/04 15:43:29;;;;;;;36.92;19.08;;;2.60;86.10;;;;;;5108380;28;20024;-60
2022/12/04 15:45:55;;;;;;;39.43;19.33;;;2.60;86.30;;;;;;5110381;28;20039;-61
2022/12/04 15:48:30;;;;;;;42.00;19.10;;;2.60;86.20;;;;;;5109503;28;20101;-60
2022/12/04 15:51:03;;;;;;;39.85;20.50;;;2.70;86.20;;;;;;5109147;28;20024;-60
2022/12/04 15:53:37;;;;;;;39.45;19.48;;;2.70;86.10;;;;;;5109518;28;20034;-59
2022/12/04 15:56:07;;;;;;;41.72;20.00;;;2.60;86.20;;;;;;5109513;28;20577;-59
2022/12/04 15:58:36;;;;;;;37.85;18.88;;;2.60;86.20;;;;;;5109114;28;20111;-60
2022/12/04 16:01:06;;;;;;;41.03;18.83;;;2.60;86.20;;;;;;5109225;28;20047;-61
2022/12/04 16:03:45;;;;;;;45.00;20.23;;;2.60;86.30;;;;;;5107534;28;20024;-61
2022/12/04 16:06:13;;;;;;;41.88;20.30;;;2.60;86.30;;;;;;5109300;28;20031;-60
2022/12/04 16:08:41;;;;;;;40.22;17.70;;;2.70;86.30;;;;;;5108771;28;20096;-63
2022/12/04 16:11:21;;;;;;;44.33;20.20;;;2.70;86.20;;;;;;5108848;28;20062;-59
2022/12/04 16:13:49;;;;;;;42.50;21.30;;;2.70;85.90;;;;;;5099855;28;20032;-60
2022/12/04 16:16:17;;;;;;;36.72;19.45;;;2.70;86.10;;;;;;5095158;28;20119;-59
2022/12/04 16:18:44;;;;;;;39.75;19.58;;;2.70;86.00;;;;;;5095185;28;20051;-60
2022/12/04 16:21:15;;;;;;;38.47;19.45;;;2.70;86.00;;;;;;5095105;28;20031;-61
2022/12/04 16:23:41;;;;;;;43.17;19.42;;;2.70;86.00;;;;;;5093780;28;20034;-60
2022/12/04 16:26:15;;;;;;;36.75;19.48;;;2.80;86.10;;;;;;5095454;28;20473;-61
2022/12/04 16:28:40;;;;;;;38.05;18.90;;;2.70;86.00;;;;;;5095102;28;20039;-58
2022/12/04 16:31:09;;;;;;;46.72;19.80;;;2.70;86.20;;;;;;5096186;28;20025;-60
2022/12/04 16:33:38;;;;;;;40.67;18.75;;;2.70;86.30;;;;;;5095135;28;20054;-61
2022/12/04 16:36:04;;;;;;;45.30;20.08;;;2.70;86.20;;;;;;5096401;28;20031;-60
2022/12/04 16:38:30;;;;;;;42.05;20.38;;;2.80;86.30;;;;;;5096344;28;20052;-62
2022/12/04 16:40:56;;;;;;;35.63;18.45;;;2.70;86.10;;;;;;5095893;28;20418;-61
2022/12/04 16:43:22;;;;;;;42.20;19.25;;;2.70;86.40;;;;;;5095711;28;20104;-60
2022/12/04 16:45:53;;;;;;;42.58;19.75;;;2.60;86.50;;;;;;5094111;28;20170;-61
2022/12/04 16:48:19;;;;;;;43.58;20.77;;;2.50;87.00;;;;;;5096067;28;20341;-60
2022/12/04 16:50:45;;;;;;;40.35;22.08;;;2.60;86.70;;;;;;5095135;28;20051;-59
2022/12/04 16:53:16;;;;;;;41.72;20.60;;;2.50;87.00;;;;;;5095002;28;20380;-58
2022/12/04 16:55:43;;;;;;;;;;;2.50;87.00;;;;;;5095713;28;20545;-60
2022/12/04 16:58:09;;;;;;;43.72;21.08;;;2.60;87.00;;;;;;5095116;28;19903;-61
2022/12/04 17:00:35;;;;;;;50.60;23.48;;;2.60;87.00;;;;;;5094633;28;20103;-60
2022/12/04 17:03:03;;;;;;;47.22;22.38;;;2.50;87.00;;;;;;5094405;28;20043;-61
2022/12/04 17:05:32;;;;;;;48.55;24.63;;;2.50;87.30;;;;;;5094911;28;20495;-58
2022/12/04 17:07:58;;;;;;;47.45;23.30;;;2.50;87.40;;;;;;5094975;28;20032;-59
2022/12/04 17:10:24;;;;;;;50.15;24.70;;;2.50;87.40;;;;;;5094760;28;20020;-60
2022/12/04 17:12:53;;;;;;;61.80;28.90;;;2.40;87.40;;;;;;5093456;28;20039;-60
2022/12/04 17:15:19;;;;;;;60.15;29.58;;;2.40;87.90;;;;;;5094594;28;20032;-60
2022/12/04 17:17:44;;;;;;;61.60;28.45;;;2.30;88.10;;;;;;5094608;28;20089;-60
2022/12/04 17:20:13;;;;;;;57.63;26.77;;;2.30;88.20;;;;;;5094985;28;20020;-61
2022/12/04 17:22:39;;;;;;;82.30;34.55;;;2.20;88.50;;;;;;5094444;28;20093;-58
2022/12/04 17:25:06;;;;;;;75.63;31.38;;;2.30;88.60;;;;;;5093628;28;20020;-61
2022/12/04 17:27:32;;;;;;;73.57;34.80;;;2.30;88.40;;;;;;5094567;28;20468;-60
2022/12/04 17:29:58;;;;;;;62.88;30.40;;;2.30;88.40;;;;;;5094418;28;20385;-61
2022/12/04 17:32:25;;;;;;;65.60;29.52;;;2.20;88.70;;;;;;5095002;28;20476;-59
2022/12/04 17:34:52;;;;;;;67.40;30.30;;;2.20;89.00;;;;;;5094729;28;20024;-59
2022/12/04 17:37:18;;;;;;;65.68;29.83;;;2.30;89.00;;;;;;5094663;28;20032;-61
2022/12/04 17:39:44;;;;;;;72.25;31.27;;;2.10;89.30;;;;;;5094356;28;20466;-59
2022/12/04 17:42:10;;;;;;;72.35;31.33;;;2.10;89.70;;;;;;5094205;28;20112;-62
2022/12/04 17:44:36;;;;;;;73.38;32.55;;;2.10;89.80;;;;;;5094367;28;20026;-60
2022/12/04 17:47:02;;;;;;;83.25;33.10;;;2.10;89.80;;;;;;5093999;28;20099;-59
2022/12/04 17:49:27;;;;;;;78.43;32.35;;;2.10;89.90;;;;;;5093800;28;20021;-61
2022/12/04 17:51:53;;;;;;;92.75;33.13;;;2.20;89.80;;;;;;5094468;28;20020;-61
2022/12/04 17:54:19;;;;;;;78.85;30.13;;;2.20;89.80;;;;;;5094284;28;20375;-62
2022/12/04 17:56:45;;;;;;;66.43;28.83;;;2.20;89.70;;;;;;5092848;28;20081;-61
2022/12/04 17:59:11;;;;;;;82.53;32.75;;;2.10;89.80;;;;;;5094607;28;20388;-60
2022/12/04 18:01:36;;;;;;;77.03;32.63;;;2.10;90.10;;;;;;5094259;28;20044;-62
2022/12/04 18:04:05;;;;;;;79.95;33.80;;;2.10;90.20;;;;;;5095276;28;20360;-61
2022/12/04 18:06:33;;;;;;;76.93;33.70;;;2.10;90.20;;;;;;5094240;28;20016;-60
2022/12/04 18:09:00;;;;;;;73.90;31.20;;;2.20;90.20;;;;;;5092667;28;20024;-59
2022/12/04 18:11:29;;;;;;;82.32;33.13;;;2.20;90.20;;;;;;5093790;28;20048;-61
2022/12/04 18:14:00;;;;;;;69.63;29.38;;;2.20;90.40;;;;;;5093858;28;20020;-59
2022/12/04 18:16:28;;;;;;;68.43;28.98;;;2.20;90.40;;;;;;5094089;28;20024;-61
2022/12/04 18:18:58;;;;;;;79.32;33.08;;;2.20;90.30;;;;;;5094063;28;20032;-59
2022/12/04 18:21:24;;;;;;;82.68;33.28;;;2.20;90.40;;;;;;5093770;28;20081;-62
2022/12/04 18:23:50;;;;;;;74.78;31.73;;;2.10;90.40;;;;;;5093707;28;20387;-60
2022/12/04 18:26:19;;;;;;;72.05;30.92;;;2.10;90.40;;;;;;5093911;28;20024;-60
2022/12/04 18:28:45;;;;;;;74.72;31.75;;;2.10;90.50;;;;;;5093674;28;20016;-60
2022/12/04 18:31:12;;;;;;;68.45;29.65;;;2.10;90.50;;;;;;5093577;28;20027;-61
2022/12/04 18:33:40;;;;;;;70.25;31.42;;;2.10;90.60;;;;;;5092074;28;20062;-59
2022/12/04 18:36:10;;;;;;;70.47;31.33;;;2.10;90.60;;;;;;5093067;28;20072;-68
2022/12/04 18:38:36;;;;;;;71.90;32.20;;;2.00;90.70;;;;;;5093521;28;20028;-61
2022/12/04 18:41:07;;;;;;;64.03;30.13;;;2.10;90.90;;;;;;5091870;28;20499;-61
2022/12/04 18:43:38;;;;;;;77.85;31.08;;;2.10;90.90;;;;;;5093716;28;20020;-62
2022/12/04 18:46:07;;;;;;;62.95;30.35;;;1.90;90.90;;;;;;5093974;28;20352;-60
2022/12/04 18:48:34;;;;;;;69.70;29.00;;;1.90;91.10;;;;;;5093728;28;20020;-61
2022/12/04 18:50:59;;;;;;;66.63;28.85;;;1.90;91.20;;;;;;5093463;28;20020;-60
2022/12/04 18:53:25;;;;;;;72.03;31.98;;;1.90;91.20;;;;;;5093494;28;20021;-59
2022/12/04 18:55:52;;;;;;;61.95;29.25;;;2.00;91.30;;;;;;5093536;28;20110;-60
2022/12/04 18:58:20;;;;;;;80.28;32.63;;;1.90;91.10;;;;;;5093244;28;20024;-61
2022/12/04 19:00:46;;;;;;;74.00;31.20;;;2.00;91.10;;;;;;5093512;28;20020;-49
2022/12/04 19:03:11;;;;;;;62.92;29.48;;;2.00;91.30;;;;;;5093503;28;20034;-49
2022/12/04 19:05:37;;;;;;;80.28;32.03;;;2.10;91.20;;;;;;5093231;28;20027;-52
2022/12/04 19:08:03;;;;;;;72.68;32.60;;;2.00;91.10;;;;;;5092008;28;20024;-49
2022/12/04 19:10:28;;;;;;;68.18;29.80;;;2.00;91.30;;;;;;5093508;28;20024;-61
2022/12/04 19:12:54;;;;;;;76.85;31.55;;;2.00;91.20;;;;;;5093500;28;20106;-56
2022/12/04 19:15:20;;;;;;;67.13;28.65;;;2.10;91.40;;;;;;5093690;28;20024;-49
2022/12/04 19:17:47;;;;;;;65.15;29.10;;;2.10;91.20;;;;;;5093469;28;20024;-50
2022/12/04 19:20:13;;;;;;;75.55;27.75;;;2.00;91.20;;;;;;5093045;28;20112;-47
2022/12/04 19:22:39;;;;;;;67.75;30.45;;;2.00;91.30;;;;;;5092407;28;20028;-49
2022/12/04 19:25:05;;;;;;;74.57;31.23;;;1.90;91.50;;;;;;5093446;28;20380;-48
2022/12/04 19:27:31;;;;;;;79.18;28.73;;;1.90;91.70;;;;;;5093349;28;20377;-49
2022/12/04 19:29:57;;;;;;;59.90;27.35;;;1.90;91.80;;;;;;5093229;28;20107;-49
2022/12/04 19:32:23;;;;;;;80.20;30.55;;;1.90;91.80;;;;;;5093404;28;20052;-49
2022/12/04 19:34:49;;;;;;;68.13;31.25;;;1.80;91.70;;;;;;5093451;28;20069;-49
2022/12/04 19:37:16;;;;;;;65.30;30.80;;;2.00;91.80;;;;;;5093058;28;20024;-47
2022/12/04 19:39:41;;;;;;;66.05;29.83;;;2.10;91.60;;;;;;5093094;28;20020;-51
2022/12/04 19:42:08;;;;;;;62.63;28.73;;;2.00;91.40;;;;;;5092913;28;20035;-49
2022/12/04 19:44:34;;;;;;;56.78;28.17;;;2.00;91.50;;;;;;5093396;28;20067;-53
2022/12/04 19:47:00;;;;;;;59.33;27.85;;;2.00;91.40;;;;;;5092897;28;20024;-50
2022/12/04 19:49:26;;;;;;;69.90;29.77;;;2.10;91.50;;;;;;5095785;28;20142;-48
2022/12/04 19:51:52;;;;;;;56.65;28.27;;;2.10;91.20;;;;;;5095237;28;20024;-48
2022/12/04 19:54:18;;;;;;;56.75;27.45;;;2.20;91.10;;;;;;5096874;28;20039;-50
2022/12/04 19:56:47;;;;;;;58.38;26.15;;;2.20;90.90;;;;;;5096815;28;20024;-49
2022/12/04 19:59:13;;;;;;;60.10;26.73;;;2.10;90.90;;;;;;5097016;28;20085;-53
2022/12/04 20:01:39;;;;;;;54.80;27.15;;;2.20;91.00;;;;;;5096541;28;20040;-49
2022/12/04 20:04:06;;;;;;;58.67;27.00;;;2.20;90.70;;;;;;5096632;28;20422;-50
2022/12/04 20:06:37;;;;;;;58.05;27.02;;;2.20;90.60;;;;;;5097103;28;20024;-50
2022/12/04 20:09:06;;;;;;;52.10;24.65;;;2.20;90.60;;;;;;5096842;28;20016;-50
2022/12/04 20:11:32;;;;;;;61.13;25.75;;;2.20;90.70;;;;;;5095275;28;20114;-49
2022/12/04 20:14:00;;;;;;;56.03;25.40;;;2.20;90.70;;;;;;5096744;28;20059;-51
2022/12/04 20:16:28;;;;;;;52.25;24.73;;;2.30;90.50;;;;;;5096782;28;20111;-52
2022/12/04 20:18:54;;;;;;;59.72;24.20;;;2.30;90.30;;;;;;5096694;28;20053;-49
2022/12/04 20:21:24;;;;;;;60.63;26.05;;;2.20;90.40;;;;;;5096448;28;20024;-50
2022/12/04 20:23:52;;;;;;;52.65;24.00;;;2.20;90.40;;;;;;5096739;28;20067;-51
2022/12/04 20:26:23;;;;;;;46.20;23.40;;;2.20;90.40;;;;;;5096160;28;20121;-51
2022/12/04 20:28:49;;;;;;;49.13;23.25;;;2.20;90.40;;;;;;5096674;28;20031;-52
2022/12/04 20:31:25;;;;;;;51.10;23.70;;;2.20;90.30;;;;;;5096328;28;20483;-50
2022/12/04 20:33:52;;;;;;;55.00;25.13;;;2.20;90.50;;;;;;5096388;28;20107;-51
2022/12/04 20:36:20;;;;;;;54.20;24.27;;;2.30;90.30;;;;;;5095943;28;20024;-50
2022/12/04 20:38:47;;;;;;;53.90;23.42;;;2.20;90.50;;;;;;5095838;28;20035;-50
2022/12/04 20:41:15;;;;;;;49.53;23.77;;;2.20;90.60;;;;;;5095905;28;20028;-50
2022/12/04 20:43:45;;;;;;;50.20;23.33;;;2.20;90.60;;;;;;5094652;28;20081;-51
2022/12/04 20:46:20;;;;;;;52.45;25.55;;;2.20;90.50;;;;;;5095840;28;20106;-52
2022/12/04 20:48:48;;;;;;;55.42;26.40;;;2.20;90.50;;;;;;5095990;28;20035;-49
2022/12/04 20:51:25;;;;;;;45.85;22.83;;;2.20;90.60;;;;;;5095972;28;20426;-53
2022/12/04 20:53:52;;;;;;;52.58;24.83;;;2.20;90.70;;;;;;5095934;28;20111;-52
2022/12/04 20:56:24;;;;;;;62.70;26.65;;;2.10;90.70;;;;;;5095676;28;20053;-50
2022/12/04 20:58:53;;;;;;;46.50;22.58;;;2.20;90.90;;;;;;5095572;28;20111;-52
